• Join FlightAware (Why Join?)
  • Login
  • US Flag 
12:31AM EST


 

Airport Tracker/Info


-or-


 

Live Flight TrackerFlight Track Log ✈ UAL4553 ✈ 20-Apr-2013 ✈ KIAH - KLFT

Flight Track Log - Related Links

Times and Time Zones

All times are in EDT time to prevent confusion due to time zone crossing. See the UAL4553 flight status page for this flight to view local times or setup timezone preferences in your user account.

Time Position Orientation Groundspeed Altitude Reporting Facility
EDT Latitude Longitude Course Direction KTS MPH feet Rate Location/Type
08:07PM 29.9834 -94.9587 90° East  Level FlightAware Approximate
08:08PM 29.9833 -94.8338 90° East  Level FlightAware Approximate
08:09PM 29.9834 -94.7089 90° East  Level FlightAware Approximate
08:10PM 29.9833 -94.5841 90° East  Level FlightAware Approximate
08:11PM 29.9834 -94.4592 90° East  Level FlightAware Approximate
08:12PM 29.9833 -94.3343 90° East  Level FlightAware Approximate
08:13PM 30.0010 -94.2118 77° East  Level FlightAware Approximate
08:14PM 30.0201 -94.0891 85° East  Level FlightAware Approximate
08:15PM 30.0297 -93.9646 85° East  Level FlightAware Approximate
08:16PM 30.0436 -93.8408 81° East  Level FlightAware Approximate
08:17PM 30.0602 -93.7173 81° East  Level FlightAware Approximate
08:18PM 30.0766 -93.5938 81° East  Level FlightAware Approximate
08:19PM 30.0930 -93.4702 81° East  Level FlightAware Approximate
08:20PM 30.1075 -93.3463 83° East  Level FlightAware Approximate
08:21PM 30.1206 -93.2222 83° East  Level FlightAware Approximate
08:22PM 30.1335 -93.0981 84° East  Level FlightAware Approximate
08:23PM 30.1448 -92.9737 84° East  Level FlightAware Approximate
08:24PM 30.1500 -92.8489 90° East  Level FlightAware Approximate
08:25PM 30.1500 -92.7238 90° East  Level FlightAware Approximate
08:26PM 30.1592 -92.5993 84° East  Level FlightAware Approximate
08:27PM 30.1667 -92.4746 90° East  Level FlightAware Approximate
08:28PM 30.1667 -92.3495 90° East  Level FlightAware Approximate
08:29PM 30.1768 -92.2261 74° East  Level FlightAware Approximate
08:30PM 30.1833 -92.1020 90° East  Level FlightAware Approximate
08:31PM 30.2000 -91.9833 77° East  Level FlightAware Approximate
08:32PM 30.2050 -91.9877 77° East  Level Estimated
08:33PM 30.2000 -91.9833 77° East  Level FlightAware Approximate
08:34PM 30.2050 -91.9877 77° East  Level Estimated
08:35PM 30.2000 -91.9833 77° East  Level FlightAware Approximate
08:36PM 30.2050 -91.9877 77° East  Level Estimated
08:37PM 30.2000 -91.9833 77° East  Level FlightAware Approximate